CheckWX is a tool to help pilots better visualize weather data.  It is not intended as a substitute for an official pre-flight weather briefing.

18:45:47 UTC

KSEZ METAR
Sedona Airport
Sedona, Arizona, USA
Current

31 mins ago

KSEZ 221815Z AUTO 00000KT 3/4SM -SN OVC002 00/M01 A2975 RMK AO2
Observed
Feb-22 @ 18:15 UTC
Visibility
3/4 SM
Flight Rules
LIFR
Conditions
Light Snow
Cloud Levels
  • Overcast at 200' AGL
Temperature
C / 32°F
Dewpoint
-1°C / 30°F
Humidity
93%
Altimeter
29.75" Hg
Pressure
1007.42 hPa
Previous

51 mins ago

KSEZ 221755Z AUTO 16005KT 3/4SM -SN OVC004 00/M01 A2976 RMK AO2 P0001
Observed
Feb-22 @ 17:55 UTC
Wind
  • 160° at 5 KTS
Visibility
3/4 SM
Flight Rules
LIFR
Conditions
Light Snow
Cloud Levels
  • Overcast at 400' AGL
Temperature
C / 32°F
Dewpoint
-1°C / 30°F
Humidity
93%
Altimeter
29.76" Hg
Pressure
1007.82 hPa
Current Rain
0.01"
Previous

1 hour ago

KSEZ 221735Z AUTO 15005KT 1/4SM SN OVC002 00/00 A2976 RMK AO2
Observed
Feb-22 @ 17:35 UTC
Wind
  • 150° at 5 KTS
Visibility
1/4 SM
Flight Rules
LIFR
Conditions
Snow
Cloud Levels
  • Overcast at 200' AGL
Temperature
C / 32°F
Dewpoint
C / 32°F
Humidity
100%
Altimeter
29.76" Hg
Pressure
1007.82 hPa